Portada
METAR-TAF:

METAR-TAF

Aeropuertos :

Aeropuerto Internacional de Changsha-Huanghua

Changsha, China

latitud: 28-11N, longitud: 113-13E, altitud: 66 m

Observación

El informe se hizo hace 24 minutos, a las 01:00 UTC
Viento 4 kt del norte
Temperatura 8°C
Humedad 61%
Presión 1035 hPa
Visibilidad 10 km o más
sin nubes por debajo de 1500 m y sin presencia de cumulonimbus.

METAR: ZGHA 060100Z 01002MPS CAVOK 08/01 Q1035 NOSIG

Hora: 09:24 (01:24 UTC)

Pronóstico

El informe se hizo hace 6 horas y 20 minutos, a las 19:04 UTC
Pronóstico válido del 06 a las 00 UTC al 06 a las 24 UTC
Viento 8 kt del norte
Visibilidad: 6000 m

TAF: ZGHA 051904Z 0600/0624 35004MPS 6000 NSC TX16/0607Z TN04/0622Z

Observaciones y pronósticos meteorológicos de más de 4000 aeropuertos (mensajes METAR y TAF).

Los puntos amarillos y rojos representan las estaciones disponibles.

Ponga el ratón en el punto deseado para ver el nombre de la estación.

Haga clic para ver las observaciones y los pronósticos meteorológicos.

Para cambiar el mapa : haga clic en los botones verdes con una cruz de color negro para hacer un zoom, en el botón verde con un guión para alejar o en las flechas verdes para mapas adyacentes.


METAR-TAF: